createdAt,value
2018-08-31T04:33:05.577Z,29.13
2018-08-31T04:35:33.748Z,31.23
2018-08-31T04:38:02.117Z,28.50
2018-08-31T04:40:30.351Z,28.33
2018-08-31T04:42:58.609Z,29.17
2018-08-31T04:45:26.852Z,29.77
2018-08-31T04:47:55.045Z,28.67
2018-08-31T04:50:23.234Z,31.43
2018-08-31T04:52:51.479Z,28.90
2018-08-31T04:55:19.717Z,29.30
2018-08-31T04:57:47.948Z,26.43
2018-08-31T05:00:16.159Z,29.63
2018-08-31T05:02:44.527Z,26.67
2018-08-31T05:05:12.741Z,26.00
2018-08-31T05:07:41.016Z,29.13
2018-08-31T05:10:09.232Z,29.63
2018-08-31T05:12:37.460Z,28.97
2018-08-31T05:15:05.838Z,31.80
2018-08-31T05:17:34.013Z,34.27
2018-08-31T05:20:02.245Z,31.13
2018-08-31T05:22:30.511Z,29.57
2018-08-31T05:24:58.722Z,29.20
2018-08-31T05:27:26.950Z,28.87
2018-08-31T05:29:55.188Z,29.63
2018-08-31T05:32:23.384Z,29.87
2018-08-31T05:34:51.707Z,29.50
2018-08-31T05:37:20.035Z,28.93
2018-08-31T05:39:48.615Z,28.67
2018-08-31T05:42:16.792Z,29.60
2018-08-31T05:44:45.710Z,27.90
2018-08-31T05:47:16.042Z,29.33
2018-08-31T05:49:45.225Z,29.23
2018-08-31T05:52:13.523Z,30.30
2018-08-31T05:54:41.756Z,30.30
2018-08-31T05:57:09.961Z,28.90
2018-08-31T05:59:38.191Z,31.37
2018-08-31T06:02:06.397Z,27.67
2018-08-31T06:04:34.645Z,26.37
2018-08-31T06:07:02.840Z,28.40
2018-08-31T06:09:31.064Z,27.77
2018-08-31T06:11:59.343Z,28.53
2018-08-31T06:14:27.505Z,28.10
2018-08-31T06:16:55.714Z,29.63
2018-08-31T06:19:23.941Z,28.37
2018-08-31T06:21:52.143Z,28.20
2018-08-31T06:24:20.339Z,25.27
2018-08-31T06:26:48.548Z,27.33
2018-08-31T06:29:16.789Z,27.37
2018-08-31T06:31:44.956Z,29.70
2018-08-31T06:34:13.143Z,27.53
2018-08-31T06:36:41.332Z,27.30
2018-08-31T06:39:09.617Z,27.23
2018-08-31T06:41:37.793Z,27.53
2018-08-31T06:44:05.984Z,27.33
2018-08-31T06:46:34.172Z,27.20
2018-08-31T06:49:02.344Z,28.20
2018-08-31T06:51:30.578Z,28.93
2018-08-31T06:53:58.785Z,28.73
2018-08-31T06:56:26.987Z,27.20
2018-08-31T06:58:55.183Z,29.33
2018-08-31T07:01:23.335Z,29.60
2018-08-31T07:03:51.590Z,28.03
2018-08-31T07:06:19.711Z,27.67
2018-08-31T07:08:47.887Z,28.30
2018-08-31T07:11:16.181Z,28.13
2018-08-31T07:13:44.400Z,30.07
2018-08-31T07:16:12.592Z,30.10
2018-08-31T07:18:40.783Z,28.00
2018-08-31T07:21:08.984Z,26.00
2018-08-31T07:23:37.155Z,26.70
2018-08-31T07:26:05.354Z,27.43
2018-08-31T07:28:33.561Z,26.20
2018-08-31T07:31:01.748Z,25.47
2018-08-31T07:33:29.925Z,24.03
2018-08-31T07:35:58.103Z,24.03
2018-08-31T07:38:26.285Z,23.83
2018-08-31T07:40:54.446Z,24.70
2018-08-31T07:43:22.602Z,20.80
2018-08-31T07:45:50.764Z,24.50
2018-08-31T07:48:18.926Z,22.67
2018-08-31T07:50:47.095Z,23.70
2018-08-31T07:53:15.258Z,28.10
2018-08-31T07:55:43.479Z,25.47
2018-08-31T07:58:11.705Z,25.87
2018-08-31T08:00:39.863Z,24.20
2018-08-31T08:03:08.098Z,23.87
2018-08-31T08:05:36.320Z,24.07
2018-08-31T08:08:04.469Z,24.47
2018-08-31T08:10:32.674Z,21.23
2018-08-31T08:13:00.913Z,24.20
2018-08-31T08:15:29.109Z,21.83
2018-08-31T08:17:57.238Z,23.37
2018-08-31T08:20:25.718Z,23.60
2018-08-31T08:22:53.933Z,25.60
2018-08-31T08:25:22.164Z,25.83
2018-08-31T08:27:50.382Z,27.63
2018-08-31T08:30:18.585Z,27.47
2018-08-31T08:32:46.756Z,26.17
2018-08-31T08:35:14.955Z,26.43
2018-08-31T08:37:43.494Z,26.10
2018-08-31T08:40:11.697Z,25.57
2018-08-31T08:42:39.957Z,23.93
2018-08-31T08:45:08.081Z,24.90
2018-08-31T08:47:36.273Z,25.60
2018-08-31T08:50:04.810Z,23.70
2018-08-31T08:52:32.989Z,22.90
2018-08-31T08:55:01.143Z,23.80
2018-08-31T08:57:29.348Z,23.53
2018-08-31T08:59:57.521Z,24.93
2018-08-31T09:02:25.720Z,24.90
2018-08-31T09:04:53.905Z,24.50
2018-08-31T09:07:22.084Z,23.90
2018-08-31T09:09:50.245Z,22.70
2018-08-31T09:12:18.491Z,22.47
2018-08-31T09:14:46.621Z,21.70
2018-08-31T09:17:14.825Z,21.33
2018-08-31T09:19:43.005Z,20.50
2018-08-31T09:22:11.199Z,20.27
2018-08-31T09:24:39.390Z,21.13
2018-08-31T09:27:08.009Z,21.77
2018-08-31T09:29:36.212Z,20.13
2018-08-31T09:32:36.105Z,20.40
2018-08-31T09:35:04.328Z,22.37
2018-08-31T09:37:32.508Z,20.00
2018-08-31T09:40:00.696Z,20.00
2018-08-31T09:42:28.889Z,20.50
2018-08-31T09:44:57.103Z,20.72
2018-08-31T09:47:25.272Z,21.60
2018-08-31T09:49:53.865Z,19.40
2018-08-31T09:52:22.063Z,21.37
2018-08-31T09:54:50.225Z,20.87
2018-08-31T09:57:18.508Z,21.57
2018-08-31T09:59:46.665Z,22.70
2018-08-31T10:02:20.415Z,25.70
2018-08-31T10:04:48.588Z,23.60
2018-08-31T10:07:16.771Z,25.10
2018-08-31T10:09:44.943Z,23.40
2018-08-31T10:12:13.132Z,22.60
2018-08-31T10:14:41.305Z,25.80
2018-08-31T10:17:09.497Z,21.87
2018-08-31T10:19:37.685Z,24.23
2018-08-31T10:22:05.870Z,25.53
2018-08-31T10:24:34.033Z,25.27
2018-08-31T10:27:02.224Z,27.27
2018-08-31T10:29:30.400Z,25.80
2018-08-31T10:31:58.611Z,25.17
2018-08-31T10:34:26.817Z,25.97
2018-08-31T10:36:55.003Z,23.10
2018-08-31T10:39:23.149Z,25.83
2018-08-31T10:41:51.321Z,26.47
2018-08-31T10:44:19.531Z,25.70
2018-08-31T10:46:47.706Z,27.23
2018-08-31T10:49:15.884Z,26.83
2018-08-31T10:51:44.102Z,27.30
2018-08-31T10:54:12.435Z,28.20
2018-08-31T10:56:40.610Z,27.70
2018-08-31T10:59:08.809Z,25.50
2018-08-31T11:01:36.989Z,25.83
2018-08-31T11:04:05.176Z,22.90
2018-08-31T11:06:33.348Z,23.93
2018-08-31T11:09:01.550Z,22.90
2018-08-31T11:11:29.744Z,20.53
2018-08-31T11:13:57.962Z,18.33
2018-08-31T11:16:26.135Z,19.97
2018-08-31T11:18:54.384Z,18.77
2018-08-31T11:21:22.521Z,19.27
2018-08-31T11:23:50.713Z,19.73
2018-08-31T11:26:18.867Z,20.20
2018-08-31T11:28:47.080Z,16.53
2018-08-31T11:31:15.279Z,18.17
2018-08-31T11:33:43.463Z,18.17
2018-08-31T11:36:11.637Z,16.20
2018-08-31T11:38:39.833Z,15.20
2018-08-31T11:41:07.989Z,15.83
2018-08-31T11:43:36.541Z,16.83
2018-08-31T11:46:04.673Z,16.53
2018-08-31T11:48:32.845Z,17.07
2018-08-31T11:51:01.199Z,15.80
2018-08-31T11:53:31.405Z,16.10
2018-08-31T11:55:59.588Z,14.27
2018-08-31T11:58:27.817Z,14.47
2018-08-31T12:00:56.073Z,13.53
2018-08-31T12:03:24.195Z,14.20
2018-08-31T12:05:52.333Z,13.50
2018-08-31T12:08:20.520Z,13.70
2018-08-31T12:10:48.684Z,13.70
2018-08-31T12:13:16.858Z,13.13
2018-08-31T12:15:45.056Z,12.50
2018-08-31T12:18:13.244Z,12.77
2018-08-31T12:20:41.450Z,12.83
2018-08-31T12:23:09.600Z,12.80
2018-08-31T12:25:37.730Z,13.90
2018-08-31T12:28:05.872Z,13.03
2018-08-31T12:30:34.106Z,12.77
2018-08-31T12:33:02.280Z,13.57
2018-08-31T12:35:30.454Z,12.87
2018-08-31T12:37:58.677Z,12.13
2018-08-31T12:40:26.837Z,12.20
2018-08-31T12:42:55.009Z,12.37
2018-08-31T12:45:23.205Z,13.70
2018-08-31T12:47:51.388Z,14.40
2018-08-31T12:50:19.595Z,14.10
2018-08-31T12:52:47.770Z,14.43
2018-08-31T12:55:15.950Z,14.10
2018-08-31T12:57:44.109Z,15.90
2018-08-31T13:00:12.363Z,16.40
2018-08-31T13:02:40.460Z,15.33
2018-08-31T13:05:08.672Z,15.33
2018-08-31T13:07:36.817Z,15.27
2018-08-31T13:10:05.008Z,14.67
2018-08-31T13:12:33.213Z,14.60
2018-08-31T13:15:01.368Z,14.67
2018-08-31T13:17:29.536Z,14.53
2018-08-31T13:19:57.804Z,14.60
2018-08-31T13:22:25.936Z,13.90
2018-08-31T13:24:54.137Z,16.00
2018-08-31T13:27:22.299Z,15.53
2018-08-31T13:29:50.476Z,14.30
2018-08-31T13:32:18.649Z,13.90
2018-08-31T13:34:46.842Z,15.90
2018-08-31T13:37:14.992Z,14.57
2018-08-31T13:39:43.169Z,16.73
2018-08-31T13:42:11.316Z,15.30
2018-08-31T13:44:39.502Z,16.10
2018-08-31T13:47:07.699Z,16.53
2018-08-31T13:49:35.874Z,16.67
2018-08-31T13:52:04.048Z,16.00
2018-08-31T13:54:32.304Z,15.57
2018-08-31T13:57:00.485Z,16.00
2018-08-31T13:59:28.653Z,14.80
2018-08-31T14:01:56.816Z,14.90
2018-08-31T14:04:24.995Z,16.87
2018-08-31T14:06:53.138Z,15.90
2018-08-31T14:09:21.308Z,17.00
2018-08-31T14:11:49.534Z,17.13
2018-08-31T14:14:17.739Z,16.80
2018-08-31T14:16:45.916Z,17.27
2018-08-31T14:19:14.083Z,15.73
2018-08-31T14:21:42.242Z,16.83
2018-08-31T14:24:10.448Z,14.77
2018-08-31T14:26:38.576Z,14.10
2018-08-31T14:29:06.772Z,13.30
2018-08-31T14:31:34.900Z,14.03
2018-08-31T14:34:03.049Z,13.40
2018-08-31T14:36:31.268Z,14.23
2018-08-31T14:38:59.421Z,13.70
2018-08-31T14:41:27.580Z,14.60
2018-08-31T14:43:55.808Z,13.27
2018-08-31T14:46:23.960Z,13.33
2018-08-31T14:48:52.131Z,14.73
2018-08-31T14:51:20.310Z,13.00
2018-08-31T14:53:49.336Z,15.87
2018-08-31T14:56:17.535Z,14.83
2018-08-31T14:58:45.846Z,16.37
2018-08-31T15:01:13.937Z,15.20
2018-08-31T15:03:42.125Z,16.33
2018-08-31T15:06:10.299Z,16.47
2018-08-31T15:08:38.461Z,17.80
2018-08-31T15:11:06.662Z,16.80
2018-08-31T15:13:34.840Z,16.47
2018-08-31T15:16:03.024Z,16.70
2018-08-31T15:18:31.161Z,14.80
2018-08-31T15:20:59.351Z,16.43
2018-08-31T15:23:27.564Z,16.53
2018-08-31T15:25:55.764Z,17.33
2018-08-31T15:28:23.924Z,17.57
2018-08-31T15:30:52.110Z,16.40
2018-08-31T15:33:20.793Z,18.20
2018-08-31T15:35:48.987Z,18.93
2018-08-31T15:38:17.135Z,18.13
2018-08-31T15:40:45.338Z,20.53
2018-08-31T15:43:13.508Z,18.37
2018-08-31T15:45:44.822Z,18.43
2018-08-31T15:48:12.972Z,18.50
2018-08-31T15:50:41.204Z,18.70
2018-08-31T15:53:09.318Z,17.73
2018-08-31T15:55:37.495Z,17.67
2018-08-31T15:58:05.689Z,18.77
2018-08-31T16:00:33.908Z,19.03
2018-08-31T16:03:02.071Z,19.60
2018-08-31T16:05:30.232Z,18.30
2018-08-31T16:07:58.389Z,19.57
2018-08-31T16:10:26.598Z,19.40
2018-08-31T16:12:54.757Z,20.93
2018-08-31T16:15:22.902Z,19.47
2018-08-31T16:17:51.106Z,19.20
2018-08-31T16:20:19.295Z,21.07
2018-08-31T16:22:47.471Z,20.43
2018-08-31T16:25:15.680Z,21.60
2018-08-31T16:27:43.923Z,20.40
2018-08-31T16:30:12.096Z,18.83
2018-08-31T16:32:40.278Z,20.30
2018-08-31T16:35:08.458Z,21.00
2018-08-31T16:37:36.651Z,20.40
2018-08-31T16:40:04.886Z,21.20
2018-08-31T16:42:33.082Z,21.90
2018-08-31T16:45:01.262Z,20.30
2018-08-31T16:47:29.451Z,21.80
2018-08-31T16:49:57.640Z,21.23
2018-08-31T16:52:25.856Z,20.60
2018-08-31T16:54:54.025Z,21.90
2018-08-31T16:57:36.605Z,22.13
2018-08-31T17:00:04.968Z,21.80
2018-08-31T17:02:33.167Z,23.23
2018-08-31T17:05:01.402Z,21.30
2018-08-31T17:07:29.621Z,22.30
2018-08-31T17:09:57.822Z,21.83
2018-08-31T17:12:26.008Z,21.30
2018-08-31T17:14:54.186Z,22.60
2018-08-31T17:17:22.390Z,22.20
2018-08-31T17:19:50.568Z,23.73
2018-08-31T17:22:18.776Z,22.40
2018-08-31T17:24:46.942Z,21.63
2018-08-31T17:27:20.382Z,20.43
2018-08-31T17:29:48.762Z,21.10
2018-08-31T17:32:22.464Z,21.67
2018-08-31T17:34:56.063Z,24.00
2018-08-31T17:37:29.633Z,21.60
2018-08-31T17:39:58.186Z,21.77
2018-08-31T17:42:27.242Z,22.00
2018-08-31T17:44:55.474Z,23.67
2018-08-31T17:47:23.681Z,24.13
2018-08-31T17:49:51.880Z,23.23
2018-08-31T17:52:20.161Z,23.33
2018-08-31T17:54:48.340Z,23.20
2018-08-31T17:57:16.565Z,24.73
2018-08-31T17:59:44.742Z,25.40
2018-08-31T18:02:12.937Z,23.30
2018-08-31T18:04:41.124Z,25.83
2018-08-31T18:07:09.293Z,27.07
2018-08-31T18:09:37.501Z,25.07
2018-08-31T18:12:05.677Z,25.90
2018-08-31T18:14:33.892Z,28.30
2018-08-31T18:17:02.070Z,26.47
2018-08-31T18:19:30.265Z,26.77
2018-08-31T18:21:58.439Z,27.10
2018-08-31T18:24:26.666Z,26.07
2018-08-31T18:26:54.860Z,28.33
2018-08-31T18:29:23.070Z,28.10
2018-08-31T18:31:54.774Z,28.20
2018-08-31T18:34:23.068Z,28.37
2018-08-31T18:36:51.221Z,29.00
2018-08-31T18:39:19.410Z,30.20
2018-08-31T18:41:47.569Z,28.47
2018-08-31T18:44:15.752Z,28.40
2018-08-31T18:46:44.014Z,29.33
2018-08-31T18:49:12.168Z,37.10
2018-08-31T18:51:40.343Z,32.33
2018-08-31T18:54:08.612Z,31.10
2018-08-31T18:56:36.740Z,29.67
2018-08-31T18:59:04.988Z,30.40
2018-08-31T19:01:33.130Z,29.27
2018-08-31T19:04:01.356Z,27.37
2018-08-31T19:06:29.541Z,28.73
2018-08-31T19:08:57.746Z,29.60
2018-08-31T19:11:25.929Z,27.47
2018-08-31T19:13:54.137Z,27.30
2018-08-31T19:16:22.360Z,25.73
2018-08-31T19:18:50.554Z,27.47
2018-08-31T19:21:18.727Z,27.37
2018-08-31T19:23:46.906Z,26.97
2018-08-31T19:26:15.111Z,27.40
2018-08-31T19:28:43.290Z,26.73
2018-08-31T19:31:11.526Z,28.17
2018-08-31T19:36:43.711Z,27.80
2018-08-31T19:39:12.445Z,26.67
2018-08-31T19:41:40.717Z,29.30
2018-08-31T19:44:09.007Z,28.73
2018-08-31T19:46:37.274Z,30.10
2018-08-31T19:49:05.497Z,26.43
2018-08-31T19:51:33.777Z,30.40
2018-08-31T19:54:02.608Z,29.67
2018-08-31T19:56:30.902Z,27.83
2018-08-31T19:58:59.138Z,27.93
2018-08-31T20:01:27.395Z,31.43
2018-08-31T20:03:55.660Z,29.03
2018-08-31T20:06:23.946Z,28.70
2018-08-31T20:08:52.140Z,28.87
2018-08-31T20:11:20.528Z,28.50
2018-08-31T20:13:54.351Z,29.83
2018-08-31T20:16:22.722Z,25.80
2018-08-31T20:18:50.797Z,26.00
2018-08-31T20:21:19.025Z,25.10
2018-08-31T20:23:47.255Z,27.37
2018-08-31T20:26:15.496Z,26.30
2018-08-31T20:28:43.728Z,26.37
2018-08-31T20:31:11.957Z,26.53
2018-08-31T20:33:40.352Z,28.87
2018-08-31T20:36:08.677Z,28.43
2018-08-31T20:38:37.173Z,30.03
2018-08-31T20:41:05.713Z,28.30
2018-08-31T20:43:34.163Z,27.77
2018-08-31T20:46:02.822Z,28.70
2018-08-31T20:48:31.351Z,30.90
2018-08-31T20:50:59.636Z,31.53
2018-08-31T20:53:28.213Z,28.50
2018-08-31T20:55:56.568Z,28.87
2018-08-31T20:58:24.974Z,27.80
2018-08-31T21:00:55.217Z,29.70
2018-08-31T21:03:23.662Z,28.57
2018-08-31T21:05:51.972Z,30.10
2018-08-31T21:08:20.465Z,27.97
2018-08-31T21:10:49.323Z,28.70
2018-08-31T21:13:17.632Z,29.73
2018-08-31T21:15:45.963Z,29.53
2018-08-31T21:18:14.326Z,29.57
2018-08-31T21:20:42.625Z,27.80
2018-08-31T21:23:10.908Z,28.27
2018-08-31T21:25:39.157Z,30.50
2018-08-31T21:28:07.467Z,31.40
2018-08-31T21:30:35.751Z,29.40
2018-08-31T21:33:04.167Z,28.87
2018-08-31T21:35:32.463Z,29.27
2018-08-31T21:38:00.948Z,30.57
2018-08-31T21:40:29.234Z,29.60
2018-08-31T21:42:57.450Z,30.83
2018-08-31T21:45:25.755Z,30.67
2018-08-31T21:47:54.014Z,31.97
2018-08-31T21:50:22.211Z,29.30
2018-08-31T21:52:50.413Z,27.57
2018-08-31T21:55:18.651Z,27.90
2018-08-31T21:57:46.815Z,30.03
2018-08-31T22:00:16.989Z,29.70
